sensor_id;sensor_type;location;lat;lon;timestamp;P1;durP1;ratioP1;P2;durP2;ratioP2
41404;SDS011;27146;51.788;8.824;2022-07-23T00:00:53;222.55;;;201.70;;
41404;SDS011;27146;51.788;8.824;2022-07-23T00:03:19;538.25;;;494.55;;
41404;SDS011;27146;51.788;8.824;2022-07-23T00:05:45;1190.05;;;672.70;;
41404;SDS011;27146;51.788;8.824;2022-07-23T00:08:10;476.27;;;437.00;;
41404;SDS011;27146;51.788;8.824;2022-07-23T00:10:36;1326.57;;;791.88;;
41404;SDS011;27146;51.788;8.824;2022-07-23T00:13:02;662.67;;;607.33;;
41404;SDS011;27146;51.788;8.824;2022-07-23T00:15:27;841.72;;;759.65;;
41404;SDS011;27146;51.788;8.824;2022-07-23T00:17:53;800.17;;;735.15;;
41404;SDS011;27146;51.788;8.824;2022-07-23T00:20:18;951.65;;;865.22;;
41404;SDS011;27146;51.788;8.824;2022-07-23T00:22:47;897.35;;;822.30;;
41404;SDS011;27146;51.788;8.824;2022-07-23T00:25:14;815.13;;;754.15;;
41404;SDS011;27146;51.788;8.824;2022-07-23T00:27:40;589.75;;;544.85;;
41404;SDS011;27146;51.788;8.824;2022-07-23T00:30:05;752.05;;;694.53;;
41404;SDS011;27146;51.788;8.824;2022-07-23T00:32:32;896.38;;;824.47;;
41404;SDS011;27146;51.788;8.824;2022-07-23T00:34:57;817.33;;;747.65;;
41404;SDS011;27146;51.788;8.824;2022-07-23T00:37:23;274.20;;;255.63;;
41404;SDS011;27146;51.788;8.824;2022-07-23T00:39:48;647.72;;;598.28;;
41404;SDS011;27146;51.788;8.824;2022-07-23T00:42:13;313.75;;;292.67;;
41404;SDS011;27146;51.788;8.824;2022-07-23T00:44:39;774.58;;;712.40;;
41404;SDS011;27146;51.788;8.824;2022-07-23T00:47:04;921.10;;;847.03;;
41404;SDS011;27146;51.788;8.824;2022-07-23T00:49:30;765.08;;;702.83;;
41404;SDS011;27146;51.788;8.824;2022-07-23T00:51:57;342.17;;;320.23;;
41404;SDS011;27146;51.788;8.824;2022-07-23T00:54:25;580.90;;;531.40;;
41404;SDS011;27146;51.788;8.824;2022-07-23T00:56:52;409.02;;;377.38;;
41404;SDS011;27146;51.788;8.824;2022-07-23T00:59:17;424.80;;;395.08;;
41404;SDS011;27146;51.788;8.824;2022-07-23T01:01:43;243.40;;;229.05;;
41404;SDS011;27146;51.788;8.824;2022-07-23T01:04:13;928.38;;;851.42;;
41404;SDS011;27146;51.788;8.824;2022-07-23T01:06:40;304.02;;;284.65;;
41404;SDS011;27146;51.788;8.824;2022-07-23T01:09:06;414.08;;;386.33;;
41404;SDS011;27146;51.788;8.824;2022-07-23T01:11:35;813.00;;;747.38;;
41404;SDS011;27146;51.788;8.824;2022-07-23T01:14:08;958.03;;;877.85;;
41404;SDS011;27146;51.788;8.824;2022-07-23T01:16:39;429.35;;;399.05;;
41404;SDS011;27146;51.788;8.824;2022-07-23T01:19:05;884.30;;;815.60;;
41404;SDS011;27146;51.788;8.824;2022-07-23T01:21:39;460.05;;;426.67;;
41404;SDS011;27146;51.788;8.824;2022-07-23T01:24:06;644.65;;;597.92;;
41404;SDS011;27146;51.788;8.824;2022-07-23T01:26:32;179.35;;;168.70;;
41404;SDS011;27146;51.788;8.824;2022-07-23T01:28:58;593.60;;;548.13;;
41404;SDS011;27146;51.788;8.824;2022-07-23T01:31:24;450.85;;;416.95;;
41404;SDS011;27146;51.788;8.824;2022-07-23T01:33:50;437.83;;;403.13;;
41404;SDS011;27146;51.788;8.824;2022-07-23T01:36:15;589.25;;;541.90;;
41404;SDS011;27146;51.788;8.824;2022-07-23T01:38:41;882.03;;;812.30;;
41404;SDS011;27146;51.788;8.824;2022-07-23T01:41:06;559.15;;;517.38;;
41404;SDS011;27146;51.788;8.824;2022-07-23T01:43:32;840.28;;;776.17;;
41404;SDS011;27146;51.788;8.824;2022-07-23T01:45:57;458.65;;;425.90;;
41404;SDS011;27146;51.788;8.824;2022-07-23T01:48:23;504.10;;;468.05;;
41404;SDS011;27146;51.788;8.824;2022-07-23T01:50:48;311.17;;;291.23;;
41404;SDS011;27146;51.788;8.824;2022-07-23T01:53:14;511.00;;;474.35;;
41404;SDS011;27146;51.788;8.824;2022-07-23T01:55:40;797.53;;;738.70;;
41404;SDS011;27146;51.788;8.824;2022-07-23T01:58:06;457.70;;;424.17;;
41404;SDS011;27146;51.788;8.824;2022-07-23T02:00:32;581.60;;;537.08;;
41404;SDS011;27146;51.788;8.824;2022-07-23T02:02:57;704.65;;;654.30;;
41404;SDS011;27146;51.788;8.824;2022-07-23T02:05:23;354.35;;;330.23;;
41404;SDS011;27146;51.788;8.824;2022-07-23T02:07:53;640.45;;;596.08;;
41404;SDS011;27146;51.788;8.824;2022-07-23T02:10:19;690.97;;;638.70;;
41404;SDS011;27146;51.788;8.824;2022-07-23T02:12:45;640.72;;;596.15;;
41404;SDS011;27146;51.788;8.824;2022-07-23T02:15:10;549.15;;;513.63;;
41404;SDS011;27146;51.788;8.824;2022-07-23T02:17:36;601.45;;;560.97;;
41404;SDS011;27146;51.788;8.824;2022-07-23T02:20:02;339.20;;;318.65;;
41404;SDS011;27146;51.788;8.824;2022-07-23T02:22:27;252.55;;;237.57;;
41404;SDS011;27146;51.788;8.824;2022-07-23T02:24:53;309.45;;;290.02;;
41404;SDS011;27146;51.788;8.824;2022-07-23T02:27:18;132.07;;;123.55;;
41404;SDS011;27146;51.788;8.824;2022-07-23T02:29:44;185.25;;;172.98;;
41404;SDS011;27146;51.788;8.824;2022-07-23T02:32:09;269.13;;;252.65;;
41404;SDS011;27146;51.788;8.824;2022-07-23T02:34:35;247.57;;;232.95;;
41404;SDS011;27146;51.788;8.824;2022-07-23T02:37:00;46.05;;;41.45;;
41404;SDS011;27146;51.788;8.824;2022-07-23T02:39:27;380.92;;;357.13;;
41404;SDS011;27146;51.788;8.824;2022-07-23T02:41:52;87.25;;;80.70;;
41404;SDS011;27146;51.788;8.824;2022-07-23T02:44:18;62.97;;;57.58;;
41404;SDS011;27146;51.788;8.824;2022-07-23T02:46:43;30.25;;;26.63;;
41404;SDS011;27146;51.788;8.824;2022-07-23T02:49:09;335.00;;;314.73;;
41404;SDS011;27146;51.788;8.824;2022-07-23T02:51:34;234.60;;;220.65;;
41404;SDS011;27146;51.788;8.824;2022-07-23T02:54:00;99.57;;;92.38;;
41404;SDS011;27146;51.788;8.824;2022-07-23T02:56:25;277.65;;;259.90;;
41404;SDS011;27146;51.788;8.824;2022-07-23T02:58:51;134.25;;;124.93;;
41404;SDS011;27146;51.788;8.824;2022-07-23T03:01:16;67.13;;;61.38;;
41404;SDS011;27146;51.788;8.824;2022-07-23T03:03:42;137.68;;;128.48;;
41404;SDS011;27146;51.788;8.824;2022-07-23T03:06:07;323.42;;;303.67;;
41404;SDS011;27146;51.788;8.824;2022-07-23T03:08:33;286.75;;;268.45;;
41404;SDS011;27146;51.788;8.824;2022-07-23T03:10:58;132.18;;;122.55;;
41404;SDS011;27146;51.788;8.824;2022-07-23T03:13:24;211.18;;;198.15;;
41404;SDS011;27146;51.788;8.824;2022-07-23T03:15:49;71.13;;;65.95;;
41404;SDS011;27146;51.788;8.824;2022-07-23T03:18:15;74.03;;;68.45;;
41404;SDS011;27146;51.788;8.824;2022-07-23T03:20:40;86.50;;;80.82;;
41404;SDS011;27146;51.788;8.824;2022-07-23T03:23:06;40.58;;;37.38;;
41404;SDS011;27146;51.788;8.824;2022-07-23T03:25:31;122.22;;;114.38;;
41404;SDS011;27146;51.788;8.824;2022-07-23T03:27:57;135.15;;;125.60;;
41404;SDS011;27146;51.788;8.824;2022-07-23T03:30:22;117.25;;;109.38;;
41404;SDS011;27146;51.788;8.824;2022-07-23T03:32:48;150.18;;;140.23;;
41404;SDS011;27146;51.788;8.824;2022-07-23T03:35:13;118.70;;;110.75;;
41404;SDS011;27146;51.788;8.824;2022-07-23T03:37:40;42.67;;;39.03;;
41404;SDS011;27146;51.788;8.824;2022-07-23T03:40:05;88.13;;;81.72;;
41404;SDS011;27146;51.788;8.824;2022-07-23T03:42:31;78.60;;;73.05;;
41404;SDS011;27146;51.788;8.824;2022-07-23T03:44:57;209.02;;;196.52;;
41404;SDS011;27146;51.788;8.824;2022-07-23T03:47:22;220.85;;;207.82;;
41404;SDS011;27146;51.788;8.824;2022-07-23T03:49:48;39.65;;;35.90;;
41404;SDS011;27146;51.788;8.824;2022-07-23T03:52:14;203.40;;;191.18;;
41404;SDS011;27146;51.788;8.824;2022-07-23T03:54:39;88.57;;;82.57;;
41404;SDS011;27146;51.788;8.824;2022-07-23T03:57:05;138.15;;;129.70;;
41404;SDS011;27146;51.788;8.824;2022-07-23T03:59:30;112.72;;;105.72;;
41404;SDS011;27146;51.788;8.824;2022-07-23T04:01:56;211.02;;;198.60;;
41404;SDS011;27146;51.788;8.824;2022-07-23T04:04:22;173.68;;;163.15;;
41404;SDS011;27146;51.788;8.824;2022-07-23T04:06:47;52.13;;;48.08;;
41404;SDS011;27146;51.788;8.824;2022-07-23T04:09:13;71.38;;;66.53;;
41404;SDS011;27146;51.788;8.824;2022-07-23T04:11:38;31.33;;;28.33;;
41404;SDS011;27146;51.788;8.824;2022-07-23T04:14:04;190.65;;;179.20;;
41404;SDS011;27146;51.788;8.824;2022-07-23T04:16:29;40.50;;;36.78;;
41404;SDS011;27146;51.788;8.824;2022-07-23T04:18:56;149.07;;;140.10;;
41404;SDS011;27146;51.788;8.824;2022-07-23T04:21:22;140.40;;;131.60;;
41404;SDS011;27146;51.788;8.824;2022-07-23T04:23:48;91.78;;;85.68;;
41404;SDS011;27146;51.788;8.824;2022-07-23T04:26:14;137.13;;;128.45;;
41404;SDS011;27146;51.788;8.824;2022-07-23T04:28:39;118.15;;;110.30;;
41404;SDS011;27146;51.788;8.824;2022-07-23T04:31:05;117.18;;;109.22;;
41404;SDS011;27146;51.788;8.824;2022-07-23T04:33:30;136.48;;;127.82;;
41404;SDS011;27146;51.788;8.824;2022-07-23T04:35:56;157.15;;;147.63;;
41404;SDS011;27146;51.788;8.824;2022-07-23T04:38:21;63.38;;;58.70;;
41404;SDS011;27146;51.788;8.824;2022-07-23T04:40:47;81.43;;;76.28;;
41404;SDS011;27146;51.788;8.824;2022-07-23T04:43:12;78.25;;;73.30;;
41404;SDS011;27146;51.788;8.824;2022-07-23T04:45:38;126.85;;;119.22;;
41404;SDS011;27146;51.788;8.824;2022-07-23T04:48:03;94.05;;;87.60;;
41404;SDS011;27146;51.788;8.824;2022-07-23T04:50:29;137.73;;;129.05;;
41404;SDS011;27146;51.788;8.824;2022-07-23T04:52:55;102.28;;;95.72;;
41404;SDS011;27146;51.788;8.824;2022-07-23T04:55:20;195.50;;;183.50;;
41404;SDS011;27146;51.788;8.824;2022-07-23T04:57:46;403.95;;;378.48;;
41404;SDS011;27146;51.788;8.824;2022-07-23T05:00:11;1999.90;;;999.90;;
41404;SDS011;27146;51.788;8.824;2022-07-23T05:02:37;1999.90;;;999.90;;
41404;SDS011;27146;51.788;8.824;2022-07-23T05:05:02;1999.90;;;999.90;;
41404;SDS011;27146;51.788;8.824;2022-07-23T05:07:28;1999.90;;;999.90;;
41404;SDS011;27146;51.788;8.824;2022-07-23T05:09:54;1999.90;;;999.90;;
41404;SDS011;27146;51.788;8.824;2022-07-23T05:12:19;1999.90;;;999.90;;
41404;SDS011;27146;51.788;8.824;2022-07-23T05:14:45;1999.90;;;999.90;;
41404;SDS011;27146;51.788;8.824;2022-07-23T05:17:10;1999.90;;;999.90;;
41404;SDS011;27146;51.788;8.824;2022-07-23T05:19:36;1999.90;;;999.90;;
41404;SDS011;27146;51.788;8.824;2022-07-23T05:22:02;1999.90;;;999.90;;
41404;SDS011;27146;51.788;8.824;2022-07-23T05:24:27;1999.90;;;999.90;;
41404;SDS011;27146;51.788;8.824;2022-07-23T05:26:53;1999.90;;;999.90;;
41404;SDS011;27146;51.788;8.824;2022-07-23T05:29:18;1999.90;;;999.90;;
41404;SDS011;27146;51.788;8.824;2022-07-23T05:31:45;1999.90;;;999.90;;
41404;SDS011;27146;51.788;8.824;2022-07-23T05:34:10;1999.90;;;999.90;;
41404;SDS011;27146;51.788;8.824;2022-07-23T05:36:36;1999.90;;;999.90;;
41404;SDS011;27146;51.788;8.824;2022-07-23T05:39:02;1999.90;;;999.90;;
41404;SDS011;27146;51.788;8.824;2022-07-23T05:41:28;1999.90;;;999.90;;
41404;SDS011;27146;51.788;8.824;2022-07-23T05:43:53;1999.90;;;999.90;;
41404;SDS011;27146;51.788;8.824;2022-07-23T05:46:18;1999.90;;;999.90;;
41404;SDS011;27146;51.788;8.824;2022-07-23T05:48:44;1999.90;;;999.90;;
41404;SDS011;27146;51.788;8.824;2022-07-23T05:51:18;1999.90;;;999.90;;
41404;SDS011;27146;51.788;8.824;2022-07-23T05:53:47;1999.90;;;999.90;;
41404;SDS011;27146;51.788;8.824;2022-07-23T05:56:13;1999.90;;;999.90;;
41404;SDS011;27146;51.788;8.824;2022-07-23T05:58:38;1999.90;;;999.90;;
41404;SDS011;27146;51.788;8.824;2022-07-23T06:01:04;1999.90;;;999.90;;
41404;SDS011;27146;51.788;8.824;2022-07-23T06:03:30;1999.90;;;999.90;;
41404;SDS011;27146;51.788;8.824;2022-07-23T06:05:55;1999.90;;;999.90;;
41404;SDS011;27146;51.788;8.824;2022-07-23T06:08:21;1999.90;;;999.90;;
41404;SDS011;27146;51.788;8.824;2022-07-23T06:10:46;1999.90;;;999.90;;
41404;SDS011;27146;51.788;8.824;2022-07-23T06:13:12;1999.90;;;999.90;;
41404;SDS011;27146;51.788;8.824;2022-07-23T06:15:37;1999.90;;;999.90;;
41404;SDS011;27146;51.788;8.824;2022-07-23T06:18:03;1999.90;;;999.90;;
41404;SDS011;27146;51.788;8.824;2022-07-23T06:20:28;1999.90;;;999.90;;
41404;SDS011;27146;51.788;8.824;2022-07-23T06:22:54;1999.90;;;999.90;;
41404;SDS011;27146;51.788;8.824;2022-07-23T06:25:19;1999.90;;;999.90;;
41404;SDS011;27146;51.788;8.824;2022-07-23T06:27:45;1999.90;;;999.90;;
41404;SDS011;27146;51.788;8.824;2022-07-23T06:30:12;1999.90;;;999.90;;
41404;SDS011;27146;51.788;8.824;2022-07-23T06:32:38;1999.90;;;999.90;;
41404;SDS011;27146;51.788;8.824;2022-07-23T06:35:03;1999.90;;;999.90;;
41404;SDS011;27146;51.788;8.824;2022-07-23T06:37:29;1999.90;;;999.90;;
41404;SDS011;27146;51.788;8.824;2022-07-23T06:39:55;1999.90;;;999.90;;
41404;SDS011;27146;51.788;8.824;2022-07-23T06:42:20;1999.90;;;999.90;;
41404;SDS011;27146;51.788;8.824;2022-07-23T06:44:46;1999.90;;;999.90;;
41404;SDS011;27146;51.788;8.824;2022-07-23T06:47:11;1999.90;;;999.90;;
41404;SDS011;27146;51.788;8.824;2022-07-23T06:49:37;1999.90;;;999.90;;
41404;SDS011;27146;51.788;8.824;2022-07-23T06:52:04;1999.90;;;999.90;;
41404;SDS011;27146;51.788;8.824;2022-07-23T06:54:29;1999.90;;;999.90;;
41404;SDS011;27146;51.788;8.824;2022-07-23T06:56:55;1999.90;;;999.90;;
41404;SDS011;27146;51.788;8.824;2022-07-23T06:59:21;1999.90;;;999.90;;
41404;SDS011;27146;51.788;8.824;2022-07-23T07:01:46;1999.90;;;999.90;;
41404;SDS011;27146;51.788;8.824;2022-07-23T07:04:12;1999.90;;;999.90;;
41404;SDS011;27146;51.788;8.824;2022-07-23T07:06:37;1999.90;;;999.90;;
41404;SDS011;27146;51.788;8.824;2022-07-23T07:09:03;1999.90;;;999.90;;
41404;SDS011;27146;51.788;8.824;2022-07-23T07:11:28;1999.90;;;999.90;;
41404;SDS011;27146;51.788;8.824;2022-07-23T07:13:54;1999.90;;;999.90;;
41404;SDS011;27146;51.788;8.824;2022-07-23T07:16:19;1999.90;;;999.90;;
41404;SDS011;27146;51.788;8.824;2022-07-23T07:18:45;1999.90;;;999.90;;
41404;SDS011;27146;51.788;8.824;2022-07-23T07:21:10;1999.90;;;999.90;;
41404;SDS011;27146;51.788;8.824;2022-07-23T07:23:36;1999.90;;;999.90;;
41404;SDS011;27146;51.788;8.824;2022-07-23T07:26:02;1999.90;;;999.90;;
41404;SDS011;27146;51.788;8.824;2022-07-23T07:28:27;1999.90;;;999.90;;
41404;SDS011;27146;51.788;8.824;2022-07-23T07:30:53;1999.90;;;999.90;;
41404;SDS011;27146;51.788;8.824;2022-07-23T07:33:19;1999.90;;;999.90;;
41404;SDS011;27146;51.788;8.824;2022-07-23T07:35:46;1999.90;;;999.90;;
41404;SDS011;27146;51.788;8.824;2022-07-23T07:38:11;1999.90;;;999.90;;
41404;SDS011;27146;51.788;8.824;2022-07-23T07:40:37;1999.90;;;999.90;;
41404;SDS011;27146;51.788;8.824;2022-07-23T07:43:05;1999.90;;;999.90;;
41404;SDS011;27146;51.788;8.824;2022-07-23T07:45:31;1999.90;;;999.90;;
41404;SDS011;27146;51.788;8.824;2022-07-23T07:47:56;1999.90;;;999.90;;
41404;SDS011;27146;51.788;8.824;2022-07-23T07:50:22;1999.90;;;999.90;;
41404;SDS011;27146;51.788;8.824;2022-07-23T07:52:48;1999.90;;;999.90;;
41404;SDS011;27146;51.788;8.824;2022-07-23T07:55:14;1999.90;;;999.90;;
41404;SDS011;27146;51.788;8.824;2022-07-23T07:57:40;1999.90;;;999.90;;
41404;SDS011;27146;51.788;8.824;2022-07-23T08:00:06;1999.90;;;999.90;;
41404;SDS011;27146;51.788;8.824;2022-07-23T08:02:40;1999.90;;;999.90;;
41404;SDS011;27146;51.788;8.824;2022-07-23T08:05:10;1999.90;;;999.90;;
41404;SDS011;27146;51.788;8.824;2022-07-23T08:07:37;1999.90;;;999.90;;
41404;SDS011;27146;51.788;8.824;2022-07-23T08:10:04;1999.90;;;999.90;;
41404;SDS011;27146;51.788;8.824;2022-07-23T08:12:40;1999.90;;;999.90;;
41404;SDS011;27146;51.788;8.824;2022-07-23T08:15:10;1999.90;;;999.90;;
41404;SDS011;27146;51.788;8.824;2022-07-23T08:17:37;1999.90;;;999.90;;
41404;SDS011;27146;51.788;8.824;2022-07-23T08:20:03;1999.90;;;999.90;;
41404;SDS011;27146;51.788;8.824;2022-07-23T08:22:43;1999.90;;;999.90;;
41404;SDS011;27146;51.788;8.824;2022-07-23T08:25:15;1999.90;;;999.90;;
41404;SDS011;27146;51.788;8.824;2022-07-23T08:27:44;1999.90;;;999.90;;
41404;SDS011;27146;51.788;8.824;2022-07-23T08:30:10;1999.90;;;999.90;;
41404;SDS011;27146;51.788;8.824;2022-07-23T08:32:49;1999.90;;;999.90;;
41404;SDS011;27146;51.788;8.824;2022-07-23T08:35:16;1999.90;;;999.90;;
41404;SDS011;27146;51.788;8.824;2022-07-23T08:37:42;1999.90;;;999.90;;
41404;SDS011;27146;51.788;8.824;2022-07-23T08:40:08;1999.90;;;999.90;;
41404;SDS011;27146;51.788;8.824;2022-07-23T08:42:34;1999.90;;;999.90;;
41404;SDS011;27146;51.788;8.824;2022-07-23T08:45:02;1999.90;;;999.90;;
41404;SDS011;27146;51.788;8.824;2022-07-23T08:47:28;1999.90;;;999.90;;
41404;SDS011;27146;51.788;8.824;2022-07-23T08:49:55;1999.90;;;999.90;;
41404;SDS011;27146;51.788;8.824;2022-07-23T08:52:23;1999.90;;;999.90;;
41404;SDS011;27146;51.788;8.824;2022-07-23T08:54:49;1999.90;;;999.90;;
41404;SDS011;27146;51.788;8.824;2022-07-23T08:57:16;1999.90;;;999.90;;
41404;SDS011;27146;51.788;8.824;2022-07-23T08:59:41;1999.90;;;999.90;;
41404;SDS011;27146;51.788;8.824;2022-07-23T09:02:07;1999.90;;;999.90;;
41404;SDS011;27146;51.788;8.824;2022-07-23T09:04:33;1999.90;;;999.90;;
41404;SDS011;27146;51.788;8.824;2022-07-23T09:06:59;1999.90;;;999.90;;
41404;SDS011;27146;51.788;8.824;2022-07-23T09:09:26;1999.90;;;999.90;;
41404;SDS011;27146;51.788;8.824;2022-07-23T09:12:01;1999.90;;;999.90;;
41404;SDS011;27146;51.788;8.824;2022-07-23T09:14:35;1999.90;;;999.90;;
41404;SDS011;27146;51.788;8.824;2022-07-23T09:17:16;1999.90;;;999.90;;
41404;SDS011;27146;51.788;8.824;2022-07-23T09:19:43;1999.90;;;999.90;;
41404;SDS011;27146;51.788;8.824;2022-07-23T09:22:44;1999.90;;;999.90;;
41404;SDS011;27146;51.788;8.824;2022-07-23T09:25:09;1999.90;;;999.90;;
41404;SDS011;27146;51.788;8.824;2022-07-23T09:27:53;1999.90;;;999.90;;
41404;SDS011;27146;51.788;8.824;2022-07-23T09:30:25;1999.90;;;999.90;;
41404;SDS011;27146;51.788;8.824;2022-07-23T09:33:04;1999.90;;;999.90;;
41404;SDS011;27146;51.788;8.824;2022-07-23T09:35:45;1999.90;;;999.90;;
41404;SDS011;27146;51.788;8.824;2022-07-23T09:38:11;1999.90;;;999.90;;
41404;SDS011;27146;51.788;8.824;2022-07-23T09:40:36;1999.90;;;999.90;;
41404;SDS011;27146;51.788;8.824;2022-07-23T09:43:02;1999.90;;;999.90;;
41404;SDS011;27146;51.788;8.824;2022-07-23T09:45:27;1999.90;;;999.90;;
41404;SDS011;27146;51.788;8.824;2022-07-23T09:48:09;1999.90;;;999.90;;
41404;SDS011;27146;51.788;8.824;2022-07-23T09:50:44;1999.90;;;999.90;;
41404;SDS011;27146;51.788;8.824;2022-07-23T09:53:10;1999.90;;;999.90;;
41404;SDS011;27146;51.788;8.824;2022-07-23T09:55:49;1999.90;;;999.90;;
41404;SDS011;27146;51.788;8.824;2022-07-23T09:58:17;1999.90;;;999.90;;
41404;SDS011;27146;51.788;8.824;2022-07-23T10:00:46;1999.90;;;999.90;;
41404;SDS011;27146;51.788;8.824;2022-07-23T10:03:14;1999.90;;;999.90;;
41404;SDS011;27146;51.788;8.824;2022-07-23T10:05:42;1999.90;;;999.90;;
41404;SDS011;27146;51.788;8.824;2022-07-23T10:08:09;1999.90;;;999.90;;
41404;SDS011;27146;51.788;8.824;2022-07-23T10:10:37;1999.90;;;999.90;;
41404;SDS011;27146;51.788;8.824;2022-07-23T10:13:05;1999.90;;;999.90;;
41404;SDS011;27146;51.788;8.824;2022-07-23T10:15:50;1999.90;;;999.90;;
41404;SDS011;27146;51.788;8.824;2022-07-23T10:18:15;1999.90;;;999.90;;
41404;SDS011;27146;51.788;8.824;2022-07-23T10:20:41;1999.90;;;999.90;;
41404;SDS011;27146;51.788;8.824;2022-07-23T10:23:14;1999.90;;;999.90;;
41404;SDS011;27146;51.788;8.824;2022-07-23T10:28:33;1999.90;;;999.90;;
41404;SDS011;27146;51.788;8.824;2022-07-23T10:31:20;1999.90;;;999.90;;
41404;SDS011;27146;51.788;8.824;2022-07-23T10:36:51;1999.90;;;999.90;;
41404;SDS011;27146;51.788;8.824;2022-07-23T10:39:33;1999.90;;;999.90;;
41404;SDS011;27146;51.788;8.824;2022-07-23T10:44:45;1999.90;;;999.90;;
41404;SDS011;27146;51.788;8.824;2022-07-23T10:47:20;1999.90;;;999.90;;
41404;SDS011;27146;51.788;8.824;2022-07-23T10:53:07;1999.90;;;999.90;;
41404;SDS011;27146;51.788;8.824;2022-07-23T10:58:05;1999.90;;;999.90;;
41404;SDS011;27146;51.788;8.824;2022-07-23T11:00:31;1999.90;;;999.90;;
41404;SDS011;27146;51.788;8.824;2022-07-23T11:02:59;1999.90;;;999.90;;
41404;SDS011;27146;51.788;8.824;2022-07-23T11:05:26;1999.90;;;999.90;;
41404;SDS011;27146;51.788;8.824;2022-07-23T11:08:09;1999.90;;;999.90;;
41404;SDS011;27146;51.788;8.824;2022-07-23T11:10:44;1999.90;;;999.90;;
41404;SDS011;27146;51.788;8.824;2022-07-23T11:13:29;1999.90;;;999.90;;
41404;SDS011;27146;51.788;8.824;2022-07-23T11:16:18;1999.90;;;999.90;;
41404;SDS011;27146;51.788;8.824;2022-07-23T11:31:56;1999.90;;;999.90;;
41404;SDS011;27146;51.788;8.824;2022-07-23T11:37:03;1999.90;;;999.90;;
41404;SDS011;27146;51.788;8.824;2022-07-23T11:39:31;1999.90;;;999.90;;
41404;SDS011;27146;51.788;8.824;2022-07-23T11:42:00;1999.90;;;999.90;;
41404;SDS011;27146;51.788;8.824;2022-07-23T11:44:30;1999.90;;;999.90;;
41404;SDS011;27146;51.788;8.824;2022-07-23T11:47:02;1999.90;;;999.90;;
41404;SDS011;27146;51.788;8.824;2022-07-23T11:49:30;1999.90;;;999.90;;
41404;SDS011;27146;51.788;8.824;2022-07-23T11:52:05;1999.90;;;999.90;;
41404;SDS011;27146;51.788;8.824;2022-07-23T11:54:33;1999.90;;;999.90;;
41404;SDS011;27146;51.788;8.824;2022-07-23T11:57:00;1999.90;;;999.90;;
41404;SDS011;27146;51.788;8.824;2022-07-23T11:59:28;1999.90;;;999.90;;
41404;SDS011;27146;51.788;8.824;2022-07-23T12:02:00;1999.90;;;999.90;;
41404;SDS011;27146;51.788;8.824;2022-07-23T12:04:44;1999.90;;;999.90;;
41404;SDS011;27146;51.788;8.824;2022-07-23T12:07:30;1999.90;;;999.90;;
41404;SDS011;27146;51.788;8.824;2022-07-23T12:12:53;1999.90;;;999.90;;
41404;SDS011;27146;51.788;8.824;2022-07-23T12:15:22;1999.90;;;999.90;;
41404;SDS011;27146;51.788;8.824;2022-07-23T12:17:55;1999.90;;;999.90;;
41404;SDS011;27146;51.788;8.824;2022-07-23T12:20:22;1999.90;;;999.90;;
41404;SDS011;27146;51.788;8.824;2022-07-23T12:22:49;1999.90;;;999.90;;
41404;SDS011;27146;51.788;8.824;2022-07-23T12:25:18;1999.90;;;999.90;;
41404;SDS011;27146;51.788;8.824;2022-07-23T12:27:45;1999.90;;;999.90;;
41404;SDS011;27146;51.788;8.824;2022-07-23T12:30:26;1999.90;;;999.90;;
41404;SDS011;27146;51.788;8.824;2022-07-23T12:33:37;1999.90;;;999.90;;
41404;SDS011;27146;51.788;8.824;2022-07-23T12:36:06;1999.90;;;999.90;;
41404;SDS011;27146;51.788;8.824;2022-07-23T12:38:40;1999.90;;;999.90;;
41404;SDS011;27146;51.788;8.824;2022-07-23T12:41:07;1999.90;;;999.90;;
41404;SDS011;27146;51.788;8.824;2022-07-23T12:43:35;1999.90;;;999.90;;
41404;SDS011;27146;51.788;8.824;2022-07-23T12:46:03;1999.90;;;999.90;;
41404;SDS011;27146;51.788;8.824;2022-07-23T12:51:19;1999.90;;;999.90;;
41404;SDS011;27146;51.788;8.824;2022-07-23T12:53:51;1999.90;;;999.90;;
41404;SDS011;27146;51.788;8.824;2022-07-23T12:56:29;1999.90;;;999.90;;
41404;SDS011;27146;51.788;8.824;2022-07-23T12:58:57;1999.90;;;999.90;;
41404;SDS011;27146;51.788;8.824;2022-07-23T13:01:31;1999.90;;;999.90;;
41404;SDS011;27146;51.788;8.824;2022-07-23T13:04:02;1999.90;;;999.90;;
41404;SDS011;27146;51.788;8.824;2022-07-23T13:06:33;1999.90;;;999.90;;
41404;SDS011;27146;51.788;8.824;2022-07-23T13:09:08;1999.90;;;999.90;;
41404;SDS011;27146;51.788;8.824;2022-07-23T13:11:35;1999.90;;;999.90;;
41404;SDS011;27146;51.788;8.824;2022-07-23T13:14:01;1999.90;;;999.90;;
41404;SDS011;27146;51.788;8.824;2022-07-23T13:16:27;1999.90;;;999.90;;
41404;SDS011;27146;51.788;8.824;2022-07-23T13:18:53;1999.90;;;999.90;;
41404;SDS011;27146;51.788;8.824;2022-07-23T13:21:21;1999.90;;;999.90;;
41404;SDS011;27146;51.788;8.824;2022-07-23T13:23:47;1999.90;;;999.90;;
41404;SDS011;27146;51.788;8.824;2022-07-23T13:26:12;1999.90;;;999.90;;
41404;SDS011;27146;51.788;8.824;2022-07-23T13:28:38;1999.90;;;999.90;;
41404;SDS011;27146;51.788;8.824;2022-07-23T13:31:03;1999.90;;;999.90;;
41404;SDS011;27146;51.788;8.824;2022-07-23T13:33:29;1999.90;;;999.90;;
41404;SDS011;27146;51.788;8.824;2022-07-23T13:35:55;1999.90;;;999.90;;
41404;SDS011;27146;51.788;8.824;2022-07-23T13:38:20;1999.90;;;999.90;;
41404;SDS011;27146;51.788;8.824;2022-07-23T13:40:47;1999.90;;;999.90;;
41404;SDS011;27146;51.788;8.824;2022-07-23T13:43:16;1999.90;;;999.90;;
41404;SDS011;27146;51.788;8.824;2022-07-23T13:45:43;1999.90;;;999.90;;
41404;SDS011;27146;51.788;8.824;2022-07-23T13:48:10;1999.90;;;999.90;;
41404;SDS011;27146;51.788;8.824;2022-07-23T13:50:37;1999.90;;;999.90;;
41404;SDS011;27146;51.788;8.824;2022-07-23T13:53:07;1999.90;;;999.90;;
41404;SDS011;27146;51.788;8.824;2022-07-23T13:55:34;1999.90;;;999.90;;
41404;SDS011;27146;51.788;8.824;2022-07-23T13:58:00;1999.90;;;999.90;;
41404;SDS011;27146;51.788;8.824;2022-07-23T14:00:26;1999.90;;;999.90;;
41404;SDS011;27146;51.788;8.824;2022-07-23T14:02:53;1999.90;;;999.90;;
41404;SDS011;27146;51.788;8.824;2022-07-23T14:05:19;1999.90;;;999.90;;
41404;SDS011;27146;51.788;8.824;2022-07-23T14:07:45;1999.90;;;999.90;;
41404;SDS011;27146;51.788;8.824;2022-07-23T14:10:12;1999.90;;;999.90;;
41404;SDS011;27146;51.788;8.824;2022-07-23T14:12:38;1999.90;;;999.90;;
41404;SDS011;27146;51.788;8.824;2022-07-23T14:15:04;1999.90;;;999.90;;
41404;SDS011;27146;51.788;8.824;2022-07-23T14:17:31;1999.90;;;999.90;;
41404;SDS011;27146;51.788;8.824;2022-07-23T14:19:57;1999.90;;;999.90;;
41404;SDS011;27146;51.788;8.824;2022-07-23T14:22:23;1999.90;;;999.90;;
41404;SDS011;27146;51.788;8.824;2022-07-23T14:24:49;1999.90;;;999.90;;
41404;SDS011;27146;51.788;8.824;2022-07-23T14:27:15;1999.90;;;999.90;;
41404;SDS011;27146;51.788;8.824;2022-07-23T14:29:41;1999.90;;;999.90;;